sensor_id;sensor_type;location;lat;lon;timestamp;P1;durP1;ratioP1;P2;durP2;ratioP2
57535;SDS011;43361;49.790;8.960;2022-11-20T00:04:42;10.93;;;8.07;;
57535;SDS011;43361;49.790;8.960;2022-11-20T00:14:42;15.30;;;8.00;;
57535;SDS011;43361;49.790;8.960;2022-11-20T00:24:44;15.18;;;8.32;;
57535;SDS011;43361;49.790;8.960;2022-11-20T00:34:44;12.13;;;8.52;;
57535;SDS011;43361;49.790;8.960;2022-11-20T00:44:46;10.77;;;7.30;;
57535;SDS011;43361;49.790;8.960;2022-11-20T00:54:47;10.88;;;7.30;;
57535;SDS011;43361;49.790;8.960;2022-11-20T01:04:48;11.48;;;7.55;;
57535;SDS011;43361;49.790;8.960;2022-11-20T01:14:49;12.15;;;8.07;;
57535;SDS011;43361;49.790;8.960;2022-11-20T01:24:51;11.60;;;7.20;;
57535;SDS011;43361;49.790;8.960;2022-11-20T01:34:51;9.70;;;6.57;;
57535;SDS011;43361;49.790;8.960;2022-11-20T01:44:54;10.48;;;6.65;;
57535;SDS011;43361;49.790;8.960;2022-11-20T01:54:56;11.48;;;6.85;;
57535;SDS011;43361;49.790;8.960;2022-11-20T02:05:00;10.85;;;6.47;;
57535;SDS011;43361;49.790;8.960;2022-11-20T02:15:03;9.57;;;6.85;;
57535;SDS011;43361;49.790;8.960;2022-11-20T02:25:05;9.32;;;6.30;;
57535;SDS011;43361;49.790;8.960;2022-11-20T02:35:07;9.85;;;6.30;;
57535;SDS011;43361;49.790;8.960;2022-11-20T02:45:10;9.82;;;6.10;;
57535;SDS011;43361;49.790;8.960;2022-11-20T02:55:11;9.10;;;5.65;;
57535;SDS011;43361;49.790;8.960;2022-11-20T03:05:12;8.43;;;5.60;;
57535;SDS011;43361;49.790;8.960;2022-11-20T03:15:13;7.95;;;5.20;;
57535;SDS011;43361;49.790;8.960;2022-11-20T03:25:15;8.18;;;5.50;;
57535;SDS011;43361;49.790;8.960;2022-11-20T03:35:15;7.05;;;4.95;;
57535;SDS011;43361;49.790;8.960;2022-11-20T03:45:17;5.93;;;4.82;;
57535;SDS011;43361;49.790;8.960;2022-11-20T03:55:18;7.40;;;5.03;;
57535;SDS011;43361;49.790;8.960;2022-11-20T04:05:20;6.75;;;4.97;;
57535;SDS011;43361;49.790;8.960;2022-11-20T04:15:20;7.15;;;4.55;;
57535;SDS011;43361;49.790;8.960;2022-11-20T04:25:22;6.40;;;4.53;;
57535;SDS011;43361;49.790;8.960;2022-11-20T04:35:22;6.13;;;3.78;;
57535;SDS011;43361;49.790;8.960;2022-11-20T04:45:24;5.90;;;4.20;;
57535;SDS011;43361;49.790;8.960;2022-11-20T04:55:25;6.20;;;4.35;;
57535;SDS011;43361;49.790;8.960;2022-11-20T05:05:27;4.93;;;4.13;;
57535;SDS011;43361;49.790;8.960;2022-11-20T05:15:27;6.47;;;3.83;;
57535;SDS011;43361;49.790;8.960;2022-11-20T05:25:29;4.47;;;3.45;;
57535;SDS011;43361;49.790;8.960;2022-11-20T05:35:29;4.45;;;3.38;;
57535;SDS011;43361;49.790;8.960;2022-11-20T05:45:31;5.47;;;3.80;;
57535;SDS011;43361;49.790;8.960;2022-11-20T05:55:31;4.57;;;3.50;;
57535;SDS011;43361;49.790;8.960;2022-11-20T06:05:34;5.15;;;3.53;;
57535;SDS011;43361;49.790;8.960;2022-11-20T06:15:34;4.82;;;3.53;;
57535;SDS011;43361;49.790;8.960;2022-11-20T06:25:38;3.85;;;3.20;;
57535;SDS011;43361;49.790;8.960;2022-11-20T06:35:38;5.03;;;3.88;;
57535;SDS011;43361;49.790;8.960;2022-11-20T06:45:40;6.68;;;3.35;;
57535;SDS011;43361;49.790;8.960;2022-11-20T06:55:41;5.60;;;3.25;;
57535;SDS011;43361;49.790;8.960;2022-11-20T07:05:43;19.15;;;5.25;;
57535;SDS011;43361;49.790;8.960;2022-11-20T07:15:45;13.00;;;4.15;;
57535;SDS011;43361;49.790;8.960;2022-11-20T07:35:47;111.53;;;67.47;;
57535;SDS011;43361;49.790;8.960;2022-11-20T07:45:47;134.07;;;88.32;;
57535;SDS011;43361;49.790;8.960;2022-11-20T07:55:49;137.65;;;89.30;;
57535;SDS011;43361;49.790;8.960;2022-11-20T08:05:52;129.45;;;86.88;;
57535;SDS011;43361;49.790;8.960;2022-11-20T08:15:54;135.77;;;83.03;;
57535;SDS011;43361;49.790;8.960;2022-11-20T08:25:54;116.53;;;70.88;;
57535;SDS011;43361;49.790;8.960;2022-11-20T08:35:59;441.40;;;223.77;;
57535;SDS011;43361;49.790;8.960;2022-11-20T08:45:59;359.75;;;175.55;;
57535;SDS011;43361;49.790;8.960;2022-11-20T08:56:01;286.27;;;135.13;;
57535;SDS011;43361;49.790;8.960;2022-11-20T09:06:02;248.23;;;124.60;;
57535;SDS011;43361;49.790;8.960;2022-11-20T09:16:05;230.13;;;114.68;;
57535;SDS011;43361;49.790;8.960;2022-11-20T09:26:07;214.55;;;110.35;;
57535;SDS011;43361;49.790;8.960;2022-11-20T09:36:09;187.02;;;100.07;;
57535;SDS011;43361;49.790;8.960;2022-11-20T09:46:12;184.05;;;97.90;;
57535;SDS011;43361;49.790;8.960;2022-11-20T09:56:16;166.02;;;93.10;;
57535;SDS011;43361;49.790;8.960;2022-11-20T10:06:17;165.65;;;90.90;;
57535;SDS011;43361;49.790;8.960;2022-11-20T10:16:21;148.68;;;84.50;;
57535;SDS011;43361;49.790;8.960;2022-11-20T10:26:28;137.85;;;73.15;;
57535;SDS011;43361;49.790;8.960;2022-11-20T10:36:34;111.05;;;62.25;;
57535;SDS011;43361;49.790;8.960;2022-11-20T10:46:37;113.70;;;62.20;;
57535;SDS011;43361;49.790;8.960;2022-11-20T10:56:42;119.57;;;62.05;;
57535;SDS011;43361;49.790;8.960;2022-11-20T11:06:43;98.85;;;57.13;;
57535;SDS011;43361;49.790;8.960;2022-11-20T11:16:51;89.90;;;50.22;;
57535;SDS011;43361;49.790;8.960;2022-11-20T11:26:52;91.72;;;44.92;;
57535;SDS011;43361;49.790;8.960;2022-11-20T11:36:55;66.05;;;37.78;;
57535;SDS011;43361;49.790;8.960;2022-11-20T11:46:56;56.30;;;33.65;;
57535;SDS011;43361;49.790;8.960;2022-11-20T11:57:00;54.55;;;31.27;;
57535;SDS011;43361;49.790;8.960;2022-11-20T12:07:03;50.08;;;27.95;;
57535;SDS011;43361;49.790;8.960;2022-11-20T12:17:07;47.30;;;25.52;;
57535;SDS011;43361;49.790;8.960;2022-11-20T12:27:16;36.92;;;20.98;;
57535;SDS011;43361;49.790;8.960;2022-11-20T12:37:29;36.40;;;20.00;;
57535;SDS011;43361;49.790;8.960;2022-11-20T12:47:31;38.40;;;20.25;;
57535;SDS011;43361;49.790;8.960;2022-11-20T12:57:35;28.48;;;17.98;;
57535;SDS011;43361;49.790;8.960;2022-11-20T13:07:41;29.27;;;17.13;;
57535;SDS011;43361;49.790;8.960;2022-11-20T13:17:46;27.73;;;16.70;;
57535;SDS011;43361;49.790;8.960;2022-11-20T13:27:48;23.85;;;15.45;;
57535;SDS011;43361;49.790;8.960;2022-11-20T13:37:58;24.25;;;14.75;;
57535;SDS011;43361;49.790;8.960;2022-11-20T13:48:01;21.58;;;13.98;;
57535;SDS011;43361;49.790;8.960;2022-11-20T13:58:18;25.52;;;14.73;;
57535;SDS011;43361;49.790;8.960;2022-11-20T14:08:23;25.80;;;14.52;;
57535;SDS011;43361;49.790;8.960;2022-11-20T14:18:26;23.10;;;13.23;;
57535;SDS011;43361;49.790;8.960;2022-11-20T14:28:28;21.45;;;13.02;;
57535;SDS011;43361;49.790;8.960;2022-11-20T14:38:31;23.80;;;11.77;;
57535;SDS011;43361;49.790;8.960;2022-11-20T14:48:32;20.13;;;12.13;;
57535;SDS011;43361;49.790;8.960;2022-11-20T14:58:35;27.27;;;12.27;;
57535;SDS011;43361;49.790;8.960;2022-11-20T15:08:36;24.13;;;12.02;;
57535;SDS011;43361;49.790;8.960;2022-11-20T15:18:38;18.50;;;11.00;;
57535;SDS011;43361;49.790;8.960;2022-11-20T15:28:41;21.05;;;10.05;;
57535;SDS011;43361;49.790;8.960;2022-11-20T15:38:44;19.35;;;10.27;;
57535;SDS011;43361;49.790;8.960;2022-11-20T15:48:44;22.20;;;9.82;;
57535;SDS011;43361;49.790;8.960;2022-11-20T15:58:47;23.80;;;9.18;;
57535;SDS011;43361;49.790;8.960;2022-11-20T16:08:47;20.23;;;8.85;;
57535;SDS011;43361;49.790;8.960;2022-11-20T16:18:49;14.13;;;9.25;;
57535;SDS011;43361;49.790;8.960;2022-11-20T16:28:50;18.00;;;8.70;;
57535;SDS011;43361;49.790;8.960;2022-11-20T16:38:52;14.23;;;8.50;;
57535;SDS011;43361;49.790;8.960;2022-11-20T16:48:53;14.63;;;8.60;;
57535;SDS011;43361;49.790;8.960;2022-11-20T16:58:56;15.18;;;8.10;;
57535;SDS011;43361;49.790;8.960;2022-11-20T17:08:57;17.58;;;7.60;;
57535;SDS011;43361;49.790;8.960;2022-11-20T17:19:00;14.27;;;7.63;;
57535;SDS011;43361;49.790;8.960;2022-11-20T17:29:01;16.00;;;7.43;;
57535;SDS011;43361;49.790;8.960;2022-11-20T17:39:03;17.17;;;7.25;;
57535;SDS011;43361;49.790;8.960;2022-11-20T17:49:04;16.17;;;7.38;;
57535;SDS011;43361;49.790;8.960;2022-11-20T17:59:06;16.35;;;6.90;;
57535;SDS011;43361;49.790;8.960;2022-11-20T18:09:06;11.02;;;6.60;;
57535;SDS011;43361;49.790;8.960;2022-11-20T18:19:08;13.32;;;6.10;;
57535;SDS011;43361;49.790;8.960;2022-11-20T18:29:09;14.88;;;6.43;;
57535;SDS011;43361;49.790;8.960;2022-11-20T18:39:12;10.30;;;6.00;;
57535;SDS011;43361;49.790;8.960;2022-11-20T18:49:12;9.77;;;5.28;;
57535;SDS011;43361;49.790;8.960;2022-11-20T18:59:16;10.30;;;5.10;;
57535;SDS011;43361;49.790;8.960;2022-11-20T19:09:17;9.60;;;5.10;;
57535;SDS011;43361;49.790;8.960;2022-11-20T19:19:19;6.47;;;4.07;;
57535;SDS011;43361;49.790;8.960;2022-11-20T19:29:19;9.45;;;5.05;;
57535;SDS011;43361;49.790;8.960;2022-11-20T19:39:21;6.97;;;4.60;;
57535;SDS011;43361;49.790;8.960;2022-11-20T19:49:22;6.82;;;4.03;;
57535;SDS011;43361;49.790;8.960;2022-11-20T19:59:24;6.75;;;3.58;;
57535;SDS011;43361;49.790;8.960;2022-11-20T20:09:24;6.47;;;3.95;;
57535;SDS011;43361;49.790;8.960;2022-11-20T20:19:27;9.80;;;3.67;;
57535;SDS011;43361;49.790;8.960;2022-11-20T20:29:27;6.35;;;3.40;;
57535;SDS011;43361;49.790;8.960;2022-11-20T20:39:29;10.75;;;3.90;;
57535;SDS011;43361;49.790;8.960;2022-11-20T20:49:31;5.10;;;3.05;;
57535;SDS011;43361;49.790;8.960;2022-11-20T20:59:33;7.22;;;3.42;;
57535;SDS011;43361;49.790;8.960;2022-11-20T21:09:33;5.18;;;2.70;;
57535;SDS011;43361;49.790;8.960;2022-11-20T21:19:35;6.05;;;3.10;;
57535;SDS011;43361;49.790;8.960;2022-11-20T21:29:35;7.38;;;2.67;;
57535;SDS011;43361;49.790;8.960;2022-11-20T21:39:37;5.28;;;3.03;;
57535;SDS011;43361;49.790;8.960;2022-11-20T21:49:49;5.00;;;2.83;;
57535;SDS011;43361;49.790;8.960;2022-11-20T21:59:51;5.88;;;2.95;;
57535;SDS011;43361;49.790;8.960;2022-11-20T22:09:51;3.65;;;2.45;;
57535;SDS011;43361;49.790;8.960;2022-11-20T22:19:53;3.83;;;2.53;;
57535;SDS011;43361;49.790;8.960;2022-11-20T22:29:53;3.83;;;2.17;;
57535;SDS011;43361;49.790;8.960;2022-11-20T22:39:55;6.10;;;2.47;;
57535;SDS011;43361;49.790;8.960;2022-11-20T22:49:56;4.82;;;2.03;;
57535;SDS011;43361;49.790;8.960;2022-11-20T22:59:57;4.07;;;2.25;;
57535;SDS011;43361;49.790;8.960;2022-11-20T23:09:58;2.67;;;1.85;;
57535;SDS011;43361;49.790;8.960;2022-11-20T23:19:59;4.63;;;1.95;;
57535;SDS011;43361;49.790;8.960;2022-11-20T23:30:00;3.83;;;1.70;;
57535;SDS011;43361;49.790;8.960;2022-11-20T23:40:02;2.63;;;1.92;;
57535;SDS011;43361;49.790;8.960;2022-11-20T23:50:02;3.20;;;1.95;;
